createdAt,value
2023-09-12T00:00:50.179Z,4.93
2023-09-12T00:03:22.366Z,5.07
2023-09-12T00:05:58.818Z,5.25
2023-09-12T00:08:25.696Z,4.68
2023-09-12T00:11:11.949Z,4.95
2023-09-12T00:13:42.719Z,4.55
2023-09-12T00:16:12.509Z,4.35
2023-09-12T00:18:40.551Z,4.75
2023-09-12T00:21:07.466Z,4.65
2023-09-12T00:23:34.263Z,4.38
2023-09-12T00:26:00.975Z,4.53
2023-09-12T00:28:27.729Z,4.70
2023-09-12T00:30:54.532Z,4.60
2023-09-12T00:33:21.358Z,4.50
2023-09-12T00:35:48.177Z,5.15
2023-09-12T00:38:14.971Z,4.93
2023-09-12T00:40:41.639Z,4.63
2023-09-12T00:43:08.344Z,4.93
2023-09-12T00:45:35.063Z,4.30
2023-09-12T00:48:04.555Z,4.22
2023-09-12T00:50:32.885Z,4.82
2023-09-12T00:53:01.664Z,4.50
2023-09-12T00:55:30.885Z,5.00
2023-09-12T00:57:58.997Z,5.15
2023-09-12T01:00:26.504Z,5.07
2023-09-12T01:02:58.019Z,4.60
2023-09-12T01:05:28.912Z,5.20
2023-09-12T01:07:55.742Z,5.78
2023-09-12T01:10:22.486Z,5.03
2023-09-12T01:12:49.156Z,5.13
2023-09-12T01:15:17.499Z,4.50
2023-09-12T01:17:45.490Z,5.38
2023-09-12T01:20:20.700Z,4.82
2023-09-12T01:23:22.259Z,5.45
2023-09-12T01:26:03.292Z,4.88
2023-09-12T01:28:32.552Z,5.10
2023-09-12T01:31:01.494Z,6.35
2023-09-12T01:33:28.453Z,4.78
2023-09-12T01:35:55.333Z,5.45
2023-09-12T01:38:23.078Z,5.80
2023-09-12T01:40:55.894Z,4.68
2023-09-12T01:43:26.263Z,6.05
2023-09-12T01:45:59.999Z,5.68
2023-09-12T01:48:34.668Z,5.38
2023-09-12T01:51:03.019Z,5.35
2023-09-12T01:53:31.023Z,5.32
2023-09-12T01:55:59.420Z,5.68
2023-09-12T01:58:30.039Z,4.85
2023-09-12T02:00:57.094Z,5.03
2023-09-12T02:03:23.846Z,5.07
2023-09-12T02:05:50.527Z,5.43
2023-09-12T02:08:17.241Z,5.38
2023-09-12T02:10:43.942Z,5.40
2023-09-12T02:13:10.623Z,5.50
2023-09-12T02:15:40.101Z,5.38
2023-09-12T02:18:07.131Z,5.13
2023-09-12T02:20:39.162Z,5.13
2023-09-12T02:23:05.859Z,5.65
2023-09-12T02:25:32.491Z,5.38
2023-09-12T02:27:59.157Z,5.57
2023-09-12T02:30:25.851Z,5.55
2023-09-12T02:32:52.563Z,5.70
2023-09-12T02:35:19.270Z,5.65
2023-09-12T02:37:45.907Z,5.47
2023-09-12T02:40:12.920Z,5.13
2023-09-12T02:42:39.758Z,5.03
2023-09-12T02:45:07.677Z,5.57
2023-09-12T02:47:34.366Z,5.50
2023-09-12T02:50:01.128Z,5.13
2023-09-12T02:52:28.269Z,6.38
2023-09-12T02:54:54.957Z,5.93
2023-09-12T02:57:22.210Z,5.63
2023-09-12T02:59:48.870Z,5.70
2023-09-12T03:02:15.529Z,4.97
2023-09-12T03:04:42.264Z,4.80
2023-09-12T03:07:08.895Z,5.00
2023-09-12T03:09:35.689Z,5.82
2023-09-12T03:12:03.543Z,5.65
2023-09-12T03:14:31.489Z,5.95
2023-09-12T03:16:58.156Z,5.80
2023-09-12T03:19:24.906Z,5.15
2023-09-12T03:21:51.535Z,5.85
2023-09-12T03:24:19.597Z,6.13
2023-09-12T03:26:46.329Z,4.80
2023-09-12T03:29:13.057Z,5.40
2023-09-12T03:31:39.864Z,4.85
2023-09-12T03:34:06.619Z,5.53
2023-09-12T03:36:34.823Z,5.30
2023-09-12T03:39:01.510Z,5.53
2023-09-12T03:41:28.192Z,5.40
2023-09-12T03:43:56.360Z,5.38
2023-09-12T03:46:24.086Z,5.10
2023-09-12T03:48:50.827Z,5.43
2023-09-12T03:51:17.665Z,5.88
2023-09-12T03:53:44.370Z,5.03
2023-09-12T03:56:15.095Z,5.22
2023-09-12T03:58:42.045Z,4.85
2023-09-12T04:01:08.965Z,5.82
2023-09-12T04:03:35.697Z,5.50
2023-09-12T04:06:04.253Z,5.63
2023-09-12T04:08:30.949Z,5.93
2023-09-12T04:10:57.589Z,5.63
2023-09-12T04:13:24.227Z,5.88
2023-09-12T04:15:51.005Z,5.55
2023-09-12T04:18:17.909Z,5.30
2023-09-12T04:20:44.589Z,5.18
2023-09-12T04:23:11.230Z,5.18
2023-09-12T04:25:37.921Z,5.03
2023-09-12T04:28:05.304Z,5.43
2023-09-12T04:30:31.947Z,5.65
2023-09-12T04:32:58.672Z,5.15
2023-09-12T04:35:26.183Z,5.45
2023-09-12T04:37:52.891Z,5.68
2023-09-12T04:40:19.515Z,5.53
2023-09-12T04:42:46.276Z,5.45
2023-09-12T04:45:12.962Z,5.68
2023-09-12T04:47:39.717Z,5.72
2023-09-12T04:50:07.143Z,5.20
2023-09-12T04:52:34.423Z,5.47
2023-09-12T04:55:02.220Z,5.10
2023-09-12T04:57:31.693Z,5.35
2023-09-12T05:00:01.427Z,5.82
2023-09-12T05:02:28.119Z,5.20
2023-09-12T05:04:54.971Z,5.15
2023-09-12T05:07:21.702Z,4.82
2023-09-12T05:09:48.386Z,5.28
2023-09-12T05:12:15.264Z,4.95
2023-09-12T05:14:41.997Z,5.28
2023-09-12T05:17:08.902Z,5.75
2023-09-12T05:19:35.760Z,6.30
2023-09-12T05:22:02.473Z,4.65
2023-09-12T05:24:30.920Z,5.18
2023-09-12T05:26:57.618Z,5.05
2023-09-12T05:29:25.315Z,5.60
2023-09-12T05:31:52.136Z,6.00
2023-09-12T05:34:19.220Z,5.70
2023-09-12T05:36:45.941Z,5.82
2023-09-12T05:39:14.797Z,5.20
2023-09-12T05:41:41.521Z,5.47
2023-09-12T05:44:08.237Z,5.90
2023-09-12T05:46:35.006Z,5.70
2023-09-12T05:49:01.750Z,5.38
2023-09-12T05:51:28.625Z,5.40
2023-09-12T05:53:55.294Z,5.80
2023-09-12T05:56:23.628Z,6.43
2023-09-12T05:58:51.269Z,5.38
2023-09-12T06:01:18.523Z,5.00
2023-09-12T06:03:45.369Z,5.10
2023-09-12T06:06:12.934Z,5.30
2023-09-12T06:08:39.689Z,5.28
2023-09-12T06:11:06.454Z,5.55
2023-09-12T06:13:33.591Z,5.40
2023-09-12T06:16:01.125Z,5.78
2023-09-12T06:18:30.940Z,5.10
2023-09-12T06:20:59.433Z,5.60
2023-09-12T06:23:26.076Z,4.88
2023-09-12T06:25:52.740Z,5.47
2023-09-12T06:28:31.868Z,4.80
2023-09-12T06:30:59.815Z,4.88
2023-09-12T06:33:27.757Z,5.07
2023-09-12T06:35:54.964Z,6.32
2023-09-12T06:38:25.099Z,5.15
2023-09-12T06:40:52.510Z,5.68
2023-09-12T06:43:19.310Z,4.68
2023-09-12T06:45:46.589Z,4.93
2023-09-12T06:48:13.317Z,4.93
2023-09-12T06:50:40.071Z,5.28
2023-09-12T06:53:08.100Z,5.55
2023-09-12T06:55:35.108Z,4.82
2023-09-12T06:58:02.094Z,5.05
2023-09-12T07:00:28.928Z,4.90
2023-09-12T07:02:55.836Z,4.85
2023-09-12T07:05:22.636Z,5.65
2023-09-12T07:07:49.462Z,5.05
2023-09-12T07:10:23.605Z,5.72
2023-09-12T07:12:53.428Z,4.90
2023-09-12T07:15:20.268Z,4.85
2023-09-12T07:17:47.998Z,5.72
2023-09-12T07:20:14.980Z,5.95
2023-09-12T07:22:42.102Z,5.28
2023-09-12T07:25:10.336Z,5.70
2023-09-12T07:27:37.203Z,5.00
2023-09-12T07:30:06.474Z,5.57
2023-09-12T07:32:33.209Z,5.18
2023-09-12T07:35:00.158Z,5.85
2023-09-12T07:37:26.821Z,5.25
2023-09-12T07:39:53.565Z,5.97
2023-09-12T07:42:24.055Z,5.70
2023-09-12T07:44:50.913Z,5.45
2023-09-12T07:47:18.665Z,5.25
2023-09-12T07:49:45.338Z,4.80
2023-09-12T07:52:12.001Z,5.00
2023-09-12T07:54:38.652Z,4.40
2023-09-12T07:57:05.667Z,4.85
2023-09-12T07:59:32.553Z,4.90
2023-09-12T08:01:59.727Z,5.10
2023-09-12T08:04:26.897Z,4.90
2023-09-12T08:06:58.534Z,4.25
2023-09-12T08:09:52.405Z,5.30
2023-09-12T08:12:21.103Z,4.03
2023-09-12T08:14:48.331Z,4.25
2023-09-12T08:17:17.113Z,3.78
2023-09-12T08:19:44.180Z,4.85
2023-09-12T08:22:12.689Z,3.97
2023-09-12T08:24:40.423Z,3.58
2023-09-12T08:27:08.378Z,4.20
2023-09-12T08:29:35.239Z,3.55
2023-09-12T08:32:02.265Z,3.58
2023-09-12T08:34:28.950Z,3.83
2023-09-12T08:36:55.826Z,4.18
2023-09-12T08:39:28.647Z,3.80
2023-09-12T08:41:55.653Z,3.53
2023-09-12T08:44:22.779Z,3.78
2023-09-12T08:46:50.121Z,3.72
2023-09-12T08:49:19.292Z,4.40
2023-09-12T08:51:46.245Z,3.50
2023-09-12T08:54:13.318Z,4.20
2023-09-12T08:56:43.572Z,3.95
2023-09-12T08:59:11.758Z,4.00
2023-09-12T09:01:39.555Z,3.67
2023-09-12T09:04:06.620Z,4.30
2023-09-12T09:06:38.358Z,4.18
2023-09-12T09:09:07.503Z,4.38
2023-09-12T09:11:35.494Z,3.92
2023-09-12T09:14:04.201Z,4.05
2023-09-12T09:16:31.917Z,4.20
2023-09-12T09:19:06.492Z,4.10
2023-09-12T09:21:34.154Z,4.20
2023-09-12T09:24:05.796Z,4.13
2023-09-12T09:26:50.985Z,4.18
2023-09-12T09:29:20.430Z,4.22
2023-09-12T09:31:49.887Z,4.00
2023-09-12T09:34:22.420Z,4.13
2023-09-12T09:36:50.548Z,4.65
2023-09-12T09:39:19.756Z,3.95
2023-09-12T09:41:54.503Z,4.00
2023-09-12T09:44:24.063Z,4.60
2023-09-12T09:47:03.722Z,4.88
2023-09-12T09:49:35.080Z,4.50
2023-09-12T09:52:05.614Z,5.05
2023-09-12T09:54:33.010Z,5.15
2023-09-12T09:56:59.806Z,4.57
2023-09-12T09:59:28.412Z,4.57
2023-09-12T10:02:00.355Z,4.63
2023-09-12T10:04:29.948Z,4.88
2023-09-12T10:06:58.310Z,5.05
2023-09-12T10:09:28.297Z,4.45
2023-09-12T10:11:57.198Z,5.00
2023-09-12T10:14:25.074Z,4.30
2023-09-12T10:16:53.364Z,4.35
2023-09-12T10:19:29.114Z,4.47
2023-09-12T10:22:19.458Z,4.65
2023-09-12T10:24:47.781Z,5.35
2023-09-12T10:27:15.556Z,4.45
2023-09-12T10:29:42.253Z,4.75
2023-09-12T10:32:10.225Z,4.40
2023-09-12T10:34:39.020Z,4.55
2023-09-12T10:37:07.605Z,4.60
2023-09-12T10:39:35.613Z,5.03
2023-09-12T10:42:05.848Z,5.13
2023-09-12T10:44:34.800Z,4.47
2023-09-12T10:47:02.495Z,4.55
2023-09-12T10:49:29.362Z,4.82
2023-09-12T10:51:57.008Z,4.07
2023-09-12T10:54:41.525Z,4.47
2023-09-12T10:57:14.688Z,4.60
2023-09-12T11:00:05.132Z,4.93
2023-09-12T11:02:37.597Z,4.38
2023-09-12T11:05:28.116Z,4.47
2023-09-12T11:08:05.086Z,4.40
2023-09-12T11:10:33.190Z,4.43
2023-09-12T11:13:00.505Z,5.65
2023-09-12T11:15:32.558Z,4.45
2023-09-12T11:18:07.006Z,4.57
2023-09-12T11:21:00.262Z,4.50
2023-09-12T11:23:27.199Z,4.53
2023-09-12T11:26:08.085Z,4.65
2023-09-12T11:28:35.298Z,4.57
2023-09-12T11:31:02.165Z,4.60
2023-09-12T11:33:29.880Z,4.65
2023-09-12T11:35:58.884Z,4.25
2023-09-12T11:38:32.409Z,4.13
2023-09-12T11:41:00.715Z,3.92
2023-09-12T11:43:29.160Z,4.07
2023-09-12T11:45:58.377Z,4.53
2023-09-12T11:48:25.452Z,4.38
2023-09-12T11:50:59.553Z,4.50
2023-09-12T11:53:31.716Z,4.38
2023-09-12T11:56:00.065Z,4.60
2023-09-12T11:58:30.633Z,4.15
2023-09-12T12:00:59.936Z,4.88
2023-09-12T12:03:28.939Z,4.60
2023-09-12T12:05:57.014Z,4.35
2023-09-12T12:10:55.201Z,4.60
2023-09-12T12:13:23.553Z,4.35
2023-09-12T12:15:52.498Z,4.30
2023-09-12T12:18:19.475Z,4.50
2023-09-12T12:20:46.384Z,4.35
2023-09-12T12:23:13.496Z,3.92
2023-09-12T12:25:41.114Z,4.10
2023-09-12T12:28:07.821Z,3.53
2023-09-12T12:30:37.929Z,4.45
2023-09-12T12:34:22.151Z,4.57
2023-09-12T12:36:08.892Z,3.67
2023-09-12T12:38:43.531Z,4.30
2023-09-12T12:41:11.972Z,4.60
2023-09-12T12:43:44.308Z,4.55
2023-09-12T12:46:16.078Z,3.80
2023-09-12T12:48:46.732Z,4.40
2023-09-12T12:51:20.704Z,4.18
2023-09-12T12:53:54.094Z,3.95
2023-09-12T12:56:31.635Z,4.00
2023-09-12T12:59:04.215Z,4.00
2023-09-12T13:01:31.366Z,4.20
2023-09-12T13:03:58.164Z,4.50
2023-09-12T13:06:26.556Z,3.65
2023-09-12T13:08:53.512Z,4.15
2023-09-12T13:11:20.625Z,4.53
2023-09-12T13:13:52.459Z,4.20
2023-09-12T13:16:19.798Z,4.32
2023-09-12T13:18:46.663Z,4.50
2023-09-12T13:21:13.369Z,4.30
2023-09-12T13:23:40.546Z,3.85
2023-09-12T13:26:10.165Z,4.38
2023-09-12T13:28:37.504Z,4.43
2023-09-12T13:31:04.682Z,4.72
2023-09-12T13:33:33.133Z,4.40
2023-09-12T13:36:00.013Z,4.55
2023-09-12T13:38:26.675Z,4.70
2023-09-12T13:40:53.535Z,4.72
2023-09-12T13:43:20.931Z,4.70
2023-09-12T13:45:47.856Z,4.85
2023-09-12T13:48:14.866Z,4.50
2023-09-12T13:50:43.998Z,4.60
2023-09-12T13:53:10.998Z,4.80
2023-09-12T13:56:31.399Z,5.05
2023-09-12T13:58:27.856Z,4.55
2023-09-12T14:01:00.216Z,4.35
2023-09-12T14:03:29.158Z,4.93
2023-09-12T14:05:57.159Z,4.55
2023-09-12T14:08:24.218Z,4.28
2023-09-12T14:10:51.690Z,4.80
2023-09-12T14:13:22.044Z,3.95
2023-09-12T14:15:51.622Z,4.65
2023-09-12T14:18:22.155Z,4.78
2023-09-12T14:20:51.052Z,5.10
2023-09-12T14:23:18.123Z,4.75
2023-09-12T14:25:46.579Z,4.43
2023-09-12T14:28:15.504Z,4.53
2023-09-12T14:30:45.869Z,4.93
2023-09-12T14:33:15.294Z,4.68
2023-09-12T14:35:45.173Z,4.22
2023-09-12T14:38:12.244Z,4.70
2023-09-12T14:40:39.128Z,4.57
2023-09-12T14:43:05.849Z,4.38
2023-09-12T14:45:34.807Z,4.53
2023-09-12T14:48:01.598Z,4.55
2023-09-12T14:50:40.107Z,4.72
2023-09-12T14:53:09.257Z,4.97
2023-09-12T14:55:35.951Z,4.10
2023-09-12T14:58:02.683Z,4.72
2023-09-12T15:00:31.161Z,4.93
2023-09-12T15:02:58.053Z,4.38
2023-09-12T15:05:24.873Z,5.00
2023-09-12T15:07:51.510Z,4.65
2023-09-12T15:10:18.916Z,3.97
2023-09-12T15:12:45.575Z,4.38
2023-09-12T15:15:12.786Z,4.05
2023-09-12T15:17:41.361Z,4.55
2023-09-12T15:20:08.821Z,4.25
2023-09-12T15:22:35.480Z,4.13
2023-09-12T15:25:03.971Z,4.45
2023-09-12T15:27:35.908Z,4.13
2023-09-12T15:30:04.331Z,4.68
2023-09-12T15:32:31.053Z,4.25
2023-09-12T15:34:57.845Z,4.80
2023-09-12T15:37:24.569Z,4.53
2023-09-12T15:39:51.467Z,4.78
2023-09-12T15:42:34.762Z,4.85
2023-09-12T15:45:09.650Z,4.22
2023-09-12T15:47:37.174Z,4.90
2023-09-12T15:50:04.219Z,5.10
2023-09-12T15:52:31.179Z,4.93
2023-09-12T15:54:57.892Z,5.30
2023-09-12T15:57:24.652Z,7.25
2023-09-12T15:59:51.367Z,5.95
2023-09-12T16:02:18.231Z,5.13
2023-09-12T16:04:45.076Z,5.28
2023-09-12T16:07:11.824Z,5.97
2023-09-12T16:09:38.477Z,5.30
2023-09-12T16:12:07.847Z,6.22
2023-09-12T16:14:34.635Z,5.57
2023-09-12T16:17:02.532Z,6.10
2023-09-12T16:19:29.294Z,5.75
2023-09-12T16:21:56.014Z,5.05
2023-09-12T16:24:23.509Z,5.28
2023-09-12T16:26:50.468Z,5.28
2023-09-12T16:29:17.318Z,5.10
2023-09-12T16:31:44.063Z,5.30
2023-09-12T16:34:10.781Z,5.00
2023-09-12T16:36:37.658Z,5.32
2023-09-12T16:39:04.443Z,4.78
2023-09-12T16:41:34.004Z,5.63
2023-09-12T16:44:00.634Z,5.28
2023-09-12T16:46:27.313Z,4.95
2023-09-12T16:48:53.985Z,5.15
2023-09-12T16:51:20.661Z,4.90
2023-09-12T16:53:47.441Z,5.63
2023-09-12T16:56:14.103Z,5.60
2023-09-12T16:58:41.714Z,5.22
2023-09-12T17:01:08.342Z,5.32
2023-09-12T17:03:35.128Z,5.07
2023-09-12T17:06:02.665Z,5.70
2023-09-12T17:08:30.104Z,6.00
2023-09-12T17:10:58.150Z,5.85
2023-09-12T17:13:24.773Z,5.13
2023-09-12T17:15:51.547Z,5.43
2023-09-12T17:18:18.352Z,5.90
2023-09-12T17:20:45.046Z,5.65
2023-09-12T17:23:11.715Z,6.18
2023-09-12T17:25:38.409Z,5.78
2023-09-12T17:28:05.916Z,4.93
2023-09-12T17:30:32.620Z,5.70
2023-09-12T17:33:01.910Z,5.53
2023-09-12T17:35:28.734Z,5.57
2023-09-12T17:37:55.388Z,5.30
2023-09-12T17:40:23.269Z,5.88
2023-09-12T17:42:49.911Z,6.15
2023-09-12T17:45:16.680Z,6.00
2023-09-12T17:47:43.319Z,5.70
2023-09-12T17:50:11.129Z,5.95
2023-09-12T17:52:38.829Z,5.78
2023-09-12T17:55:05.718Z,6.72
2023-09-12T17:57:32.372Z,5.80
2023-09-12T17:59:59.064Z,7.00
2023-09-12T18:02:26.993Z,6.50
2023-09-12T18:04:53.767Z,6.20
2023-09-12T18:07:21.908Z,6.25
2023-09-12T18:09:51.059Z,6.70
2023-09-12T18:12:17.958Z,6.60
2023-09-12T18:14:44.562Z,8.77
2023-09-12T18:17:12.312Z,7.63
2023-09-12T18:19:39.123Z,8.98
2023-09-12T18:22:10.375Z,7.72
2023-09-12T18:24:37.203Z,6.95
2023-09-12T18:27:04.111Z,6.80
2023-09-12T18:29:30.929Z,6.55
2023-09-12T18:31:57.626Z,6.43
2023-09-12T18:34:24.292Z,6.72
2023-09-12T18:36:53.215Z,6.82
2023-09-12T18:39:19.854Z,6.28
2023-09-12T18:41:47.564Z,6.07
2023-09-12T18:44:14.269Z,7.68
2023-09-12T18:46:42.998Z,6.88
2023-09-12T18:49:09.794Z,6.63
2023-09-12T18:51:36.903Z,6.10
2023-09-12T18:54:03.965Z,6.18
2023-09-12T18:56:31.115Z,6.63
2023-09-12T18:58:57.826Z,6.05
2023-09-12T19:01:24.769Z,6.97
2023-09-12T19:03:52.038Z,6.20
2023-09-12T19:06:19.082Z,6.63
2023-09-12T19:08:47.948Z,7.13
2023-09-12T19:11:14.784Z,7.10
2023-09-12T19:13:43.218Z,7.03
2023-09-12T19:16:10.270Z,6.30
2023-09-12T19:18:37.934Z,6.85
2023-09-12T19:21:06.009Z,7.38
2023-09-12T19:23:32.635Z,6.82
2023-09-12T19:25:59.336Z,7.93
2023-09-12T19:28:25.965Z,7.50
2023-09-12T19:30:52.826Z,6.80
2023-09-12T19:33:19.527Z,7.78
2023-09-12T19:35:46.173Z,7.30
2023-09-12T19:38:12.926Z,7.78
2023-09-12T19:40:41.256Z,7.20
2023-09-12T19:43:10.971Z,7.72
2023-09-12T19:45:39.347Z,5.90
2023-09-12T19:48:11.545Z,4.05
2023-09-12T19:50:38.886Z,3.38
2023-09-12T19:53:06.883Z,4.10
2023-09-12T19:55:34.247Z,4.88
2023-09-12T19:58:00.953Z,4.43
2023-09-12T20:00:27.673Z,3.75
2023-09-12T20:02:54.367Z,4.18
2023-09-12T20:05:23.969Z,3.78
2023-09-12T20:07:51.635Z,3.30
2023-09-12T20:10:21.075Z,3.65
2023-09-12T20:12:49.356Z,3.45
2023-09-12T20:15:16.211Z,4.10
2023-09-12T20:17:42.961Z,3.67
2023-09-12T20:20:11.761Z,3.13
2023-09-12T20:22:38.417Z,2.72
2023-09-12T20:25:05.580Z,2.67
2023-09-12T20:27:32.310Z,2.90
2023-09-12T20:30:00.598Z,3.40
2023-09-12T20:32:27.291Z,3.53
2023-09-12T20:34:53.961Z,3.22
2023-09-12T20:37:20.572Z,2.95
2023-09-12T20:39:48.879Z,3.33
2023-09-12T20:42:15.616Z,3.45
2023-09-12T20:44:42.278Z,3.20
2023-09-12T20:47:08.917Z,3.20
2023-09-12T20:49:37.856Z,2.83
2023-09-12T20:52:04.726Z,3.03
2023-09-12T20:54:32.618Z,3.28
2023-09-12T20:56:59.351Z,3.70
2023-09-12T20:59:25.992Z,2.78
2023-09-12T21:01:52.665Z,2.92
2023-09-12T21:04:19.338Z,2.90
2023-09-12T21:06:46.031Z,3.05
2023-09-12T21:09:16.057Z,2.75
2023-09-12T21:11:43.482Z,3.42
2023-09-12T21:14:10.223Z,2.97
2023-09-12T21:16:37.038Z,3.08
2023-09-12T21:19:04.518Z,3.08
2023-09-12T21:21:31.389Z,2.63
2023-09-12T21:23:58.168Z,2.80
2023-09-12T21:26:24.886Z,2.60
2023-09-12T21:28:51.567Z,2.35
2023-09-12T21:31:18.303Z,2.22
2023-09-12T21:33:45.392Z,2.55
2023-09-12T21:36:12.337Z,1.92
2023-09-12T21:38:39.446Z,2.20
2023-09-12T21:41:06.069Z,2.20
2023-09-12T21:43:32.757Z,2.00
2023-09-12T21:45:59.408Z,2.25
2023-09-12T21:48:26.154Z,1.73
2023-09-12T21:50:53.824Z,2.08
2023-09-12T21:53:20.823Z,2.13
2023-09-12T21:55:49.220Z,2.00
2023-09-12T21:58:16.302Z,1.90
2023-09-12T22:00:43.354Z,2.00
2023-09-12T22:03:11.203Z,2.10
2023-09-12T22:05:38.269Z,1.90
2023-09-12T22:08:06.508Z,1.88
2023-09-12T22:10:34.570Z,1.75
2023-09-12T22:13:01.683Z,2.00
2023-09-12T22:15:28.404Z,2.00
2023-09-12T22:17:55.905Z,1.85
2023-09-12T22:20:22.735Z,1.92
2023-09-12T22:22:49.494Z,2.30
2023-09-12T22:25:16.518Z,2.03
2023-09-12T22:27:44.110Z,2.08
2023-09-12T22:30:12.041Z,2.42
2023-09-12T22:32:39.590Z,2.28
2023-09-12T22:35:06.927Z,2.28
2023-09-12T22:37:33.566Z,2.20
2023-09-12T22:40:00.286Z,2.30
2023-09-12T22:42:27.063Z,2.67
2023-09-12T22:44:53.796Z,2.20
2023-09-12T22:47:20.433Z,2.20
2023-09-12T22:49:47.064Z,2.28
2023-09-12T22:52:13.720Z,2.30
2023-09-12T22:54:47.488Z,2.38
2023-09-12T22:57:14.124Z,2.60
2023-09-12T22:59:40.826Z,2.28
2023-09-12T23:02:07.699Z,2.25
2023-09-12T23:04:34.617Z,2.67
2023-09-12T23:07:01.765Z,2.45
2023-09-12T23:09:28.492Z,2.47
2023-09-12T23:11:55.221Z,2.63
2023-09-12T23:14:21.996Z,2.75
2023-09-12T23:16:48.768Z,1.95
2023-09-12T23:19:15.455Z,2.58
2023-09-12T23:21:42.241Z,2.47
2023-09-12T23:24:10.856Z,3.00
2023-09-12T23:26:37.578Z,2.47
2023-09-12T23:29:04.316Z,2.38
2023-09-12T23:31:31.097Z,3.10
2023-09-12T23:33:57.874Z,2.13
2023-09-12T23:36:24.530Z,2.22
2023-09-12T23:38:51.194Z,2.60
2023-09-12T23:41:17.868Z,2.20
2023-09-12T23:43:45.244Z,2.30
2023-09-12T23:46:12.202Z,2.60
2023-09-12T23:48:38.904Z,2.50
2023-09-12T23:51:05.579Z,2.50
2023-09-12T23:53:32.208Z,2.67
2023-09-12T23:56:01.126Z,2.40
2023-09-12T23:58:28.245Z,2.65
